Urbana, IN (46990)

12:14 PM EDT on August 29, 2015 (GMT -0400)
Wabash Co. Central Dispatch | | Change Station
CLOSE
Current Station
Personal Weather Station
Location: Wabash, IN
Elevation: 764 ft
Nearby Weather Stations

Elev 764 ft 40.82 °N, 85.80 °W | Updated 2 seconds ago

Partly Cloudy
Partly Cloudy
75.6 °F
Feels Like 77 °F
N
0.0
Wind Variable Wind from SW
Gusts 0.0 mph

Today
High -- | Low -- °F
--% Chance of Precip.
Yesterday
High -- | Low -- °F
Precip. -- in
7:06 AM 8:20 PM
Full, 100% visible
Pressure 30.10 in
Visibility 10.0 miles
Clouds Overcast 7000 ft
Heat Index 77 °F
Dew Point 67 °F
Humidity 75%
Rainfall 0.00 in
Snow Depth Not available.
UV 2 out of 12
Pollen 9.30 out of 12
Air Quality Not available.
Flu Activity Not available.
METAR KASW 291555Z AUTO 00000KT 10SM OVC070 22/17 A3010 RMK AO2
Pressure 30.10 in
Visibility 10.0 miles
Clouds Overcast 7000 ft
Heat Index 77 °F
Dew Point 67 °F
Humidity 75%
Rainfall 0.00 in
Snow Depth Not available.
UV 2 out of 12
Pollen 9.30 out of 12
Air Quality Not available.
Flu Activity Not available.
METAR KASW 291555Z AUTO 00000KT 10SM OVC070 22/17 A3010 RMK AO2

10-Day Weather Forecast

×

Almanac

Astronomy

Aug. 29, 2015 Rise Set
Actual Time
Civil Twilight
Nautical Twilight
Astronomical Twilight
Moon
Length of Visible Light
Length of Day
Tomorrow will be .
, % of the Moon is Illuminated

Today's Extremes

State Highs State Lows

Community

WunderPhotos

Upload Photos

1,850,715 photos uploaded!

WunderBlogs® & News

Nearby

Air Quality

  Air Quality AQ Index Pollutant
Not available.

Snow Depth

Station Depth Elevation

Earthquake Activity

City Distance Mag. Time & Date
Minimum magnitude displayed is 2.5.

Coastal Water Temperatures

Place Temperature

Stations

Nearby Weather Stations

Station Location Temp. Windchill Dew Point Humidity Wind Precip. Elev Updated Type